createdAt,value
2022-07-30T00:00:53.475Z,94138.78
2022-07-30T00:03:21.148Z,94142.59
2022-07-30T00:05:48.902Z,94133.91
2022-07-30T00:08:16.503Z,94133.91
2022-07-30T00:10:45.884Z,94135.53
2022-07-30T00:13:14.184Z,94138.25
2022-07-30T00:15:42.160Z,94131.19
2022-07-30T00:18:09.755Z,94134.72
2022-07-30T00:20:40.661Z,94135.53
2022-07-30T00:23:11.891Z,94136.63
2022-07-30T00:25:39.520Z,94134.19
2022-07-30T00:28:08.582Z,94136.91
2022-07-30T00:30:36.234Z,94141.56
2022-07-30T00:33:03.958Z,94139.13
2022-07-30T00:35:31.614Z,94143.47
2022-07-30T00:37:59.311Z,94131.78
2022-07-30T00:40:27.118Z,94136.41
2022-07-30T00:42:54.725Z,94137.22
2022-07-30T00:45:23.681Z,94124.66
2022-07-30T00:47:51.270Z,94139.41
2022-07-30T00:50:18.853Z,94138.31
2022-07-30T00:52:46.551Z,94136.41
2022-07-30T00:55:15.368Z,94138.31
2022-07-30T00:57:43.079Z,94141.34
2022-07-30T01:00:12.169Z,94149.50
2022-07-30T01:02:41.142Z,94144.84
2022-07-30T01:05:10.046Z,94145.97
2022-07-30T01:07:37.650Z,94151.41
2022-07-30T01:10:06.124Z,94139.72
2022-07-30T01:12:33.777Z,94145.16
2022-07-30T01:15:02.749Z,94144.34
2022-07-30T01:17:30.396Z,94133.44
2022-07-30T01:20:01.323Z,94134.25
2022-07-30T01:22:34.361Z,94123.34
2022-07-30T01:25:05.626Z,94134.53
2022-07-30T01:27:36.237Z,94140.00
2022-07-30T01:30:05.547Z,94132.91
2022-07-30T01:32:34.315Z,94140.00
2022-07-30T01:35:02.013Z,94131.03
2022-07-30T01:37:29.631Z,94136.47
2022-07-30T01:39:57.228Z,94127.75
2022-07-30T01:42:25.136Z,94133.19
2022-07-30T01:44:54.076Z,94137.84
2022-07-30T01:47:21.699Z,94138.66
2022-07-30T01:49:49.401Z,94132.13
2022-07-30T01:52:17.814Z,94141.38
2022-07-30T01:54:45.592Z,94144.94
2022-07-30T01:57:13.457Z,94143.31
2022-07-30T01:59:41.306Z,94133.50
2022-07-30T02:02:10.285Z,94144.41
2022-07-30T02:04:37.900Z,94145.22
2022-07-30T02:07:07.178Z,94148.75
2022-07-30T02:09:36.637Z,94146.81
2022-07-30T02:12:22.056Z,94142.47
2022-07-30T02:14:51.697Z,94140.84
2022-07-30T02:17:30.083Z,94147.94
2022-07-30T02:19:58.502Z,94144.41
2022-07-30T02:22:27.235Z,94143.59
2022-07-30T02:24:55.052Z,94136.81
2022-07-30T02:27:25.334Z,94140.84
2022-07-30T02:29:53.109Z,94127.22
2022-07-30T02:32:22.993Z,94129.16
2022-07-30T02:34:52.709Z,94132.97
2022-07-30T02:37:42.884Z,94143.88
2022-07-30T02:40:12.360Z,94134.59
2022-07-30T02:42:40.170Z,94141.97
2022-07-30T02:45:08.410Z,94138.44
2022-07-30T02:47:37.397Z,94134.09
2022-07-30T02:50:05.728Z,94132.16
2022-07-30T02:52:33.520Z,94129.75
2022-07-30T02:55:01.105Z,94130.53
2022-07-30T02:57:28.752Z,94130.81
2022-07-30T02:59:56.616Z,94119.13
2022-07-30T03:02:29.337Z,94128.09
2022-07-30T03:04:59.030Z,94121.84
2022-07-30T03:07:26.745Z,94123.75
2022-07-30T03:09:54.377Z,94120.22
2022-07-30T03:12:21.980Z,94123.75
2022-07-30T03:14:49.606Z,94119.41
2022-07-30T03:17:17.251Z,94107.38
2022-07-30T03:19:45.309Z,94118.59
2022-07-30T03:22:14.264Z,94125.66
2022-07-30T03:24:41.848Z,94113.94
2022-07-30T03:27:11.273Z,94116.66
2022-07-30T03:29:39.457Z,94125.16
2022-07-30T03:32:07.240Z,94125.16
2022-07-30T03:34:35.074Z,94131.41
2022-07-30T03:37:03.209Z,94132.22
2022-07-30T03:39:33.213Z,94140.41
2022-07-30T03:42:00.965Z,94139.56
2022-07-30T03:44:28.976Z,94139.88
2022-07-30T03:46:57.299Z,94139.88
2022-07-30T03:49:25.097Z,94149.69
2022-07-30T03:51:52.827Z,94144.50
2022-07-30T03:54:20.421Z,94151.06
2022-07-30T03:56:49.353Z,94153.78
2022-07-30T03:59:16.970Z,94154.06
2022-07-30T04:01:44.602Z,94161.13
2022-07-30T04:04:12.678Z,94168.53
2022-07-30T04:06:40.587Z,94172.03
2022-07-30T04:09:08.677Z,94175.59
2022-07-30T04:11:40.887Z,94175.59
2022-07-30T04:14:10.837Z,94175.88
2022-07-30T04:16:42.350Z,94167.69
2022-07-30T04:19:14.013Z,94176.69
2022-07-30T04:21:42.182Z,94177.78
2022-07-30T04:24:10.589Z,94190.31
2022-07-30T04:26:38.347Z,94185.66
2022-07-30T04:29:07.019Z,94178.59
2022-07-30T04:31:40.391Z,94184.03
2022-07-30T04:34:08.785Z,94180.53
2022-07-30T04:36:36.646Z,94188.69
2022-07-30T04:39:04.397Z,94195.25
2022-07-30T04:41:48.086Z,94190.91
2022-07-30T04:44:18.089Z,94194.44
2022-07-30T04:46:47.220Z,94197.16
2022-07-30T04:49:15.469Z,94196.34
2022-07-30T04:51:43.174Z,94192.81
2022-07-30T04:54:15.299Z,94198.56
2022-07-30T04:56:53.398Z,94200.97
2022-07-30T04:59:21.771Z,94198.25
2022-07-30T05:01:50.813Z,94205.31
2022-07-30T05:04:18.433Z,94200.69
2022-07-30T05:06:46.033Z,94202.09
2022-07-30T05:09:14.815Z,94196.34
2022-07-30T05:11:42.455Z,94207.25
2022-07-30T05:14:10.083Z,94214.59
2022-07-30T05:16:37.745Z,94216.53
2022-07-30T05:19:07.600Z,94207.53
2022-07-30T05:21:35.618Z,94224.72
2022-07-30T05:24:03.223Z,94215.72
2022-07-30T05:26:30.812Z,94225.81
2022-07-30T05:28:58.416Z,94227.44
2022-07-30T05:31:26.118Z,94227.72
2022-07-30T05:34:00.158Z,94239.44
2022-07-30T05:36:31.691Z,94242.16
2022-07-30T05:38:59.369Z,94240.50
2022-07-30T05:41:32.786Z,94240.81
2022-07-30T05:44:01.045Z,94258.78
2022-07-30T05:46:28.960Z,94240.50
2022-07-30T05:48:56.645Z,94247.06
2022-07-30T05:51:24.344Z,94245.44
2022-07-30T05:53:53.297Z,94249.78
2022-07-30T05:56:20.943Z,94255.22
2022-07-30T05:58:48.566Z,94250.88
2022-07-30T06:01:16.162Z,94255.53
2022-07-30T06:03:43.761Z,94250.88
2022-07-30T06:06:11.364Z,94260.16
2022-07-30T06:08:39.051Z,94264.50
2022-07-30T06:11:09.215Z,94266.13
2022-07-30T06:13:37.498Z,94265.59
2022-07-30T06:16:05.655Z,94271.88
2022-07-30T06:18:33.306Z,94278.13
2022-07-30T06:21:01.059Z,94283.59
2022-07-30T06:23:28.656Z,94284.41
2022-07-30T06:25:56.255Z,94286.31
2022-07-30T06:28:37.557Z,94288.50
2022-07-30T06:31:06.415Z,94284.94
2022-07-30T06:33:34.181Z,94289.56
2022-07-30T06:36:01.816Z,94294.22
2022-07-30T06:38:30.698Z,94287.94
2022-07-30T06:41:02.865Z,94297.50
2022-07-30T06:43:33.381Z,94288.25
2022-07-30T06:46:01.129Z,94292.88
2022-07-30T06:48:28.793Z,94291.25
2022-07-30T06:50:56.401Z,94293.16
2022-07-30T06:53:24.064Z,94290.13
2022-07-30T06:55:54.842Z,94290.97
2022-07-30T06:58:26.205Z,94298.03
2022-07-30T07:00:55.261Z,94303.19
2022-07-30T07:03:22.877Z,94303.19
2022-07-30T07:05:50.497Z,94305.63
2022-07-30T07:08:18.463Z,94302.63
2022-07-30T07:10:46.093Z,94306.69
2022-07-30T07:13:13.742Z,94312.41
2022-07-30T07:15:41.409Z,94300.38
2022-07-30T07:18:12.519Z,94305.84
2022-07-30T07:20:43.369Z,94308.56
2022-07-30T07:23:12.358Z,94302.84
2022-07-30T07:25:40.511Z,94304.75
2022-07-30T07:28:11.592Z,94302.84
2022-07-30T07:30:41.338Z,94304.47
2022-07-30T07:33:10.661Z,94306.38
2022-07-30T07:35:48.457Z,94304.47
2022-07-30T07:38:17.962Z,94307.19
2022-07-30T07:40:45.645Z,94308.81
2022-07-30T07:43:13.449Z,94306.91
2022-07-30T07:45:41.320Z,94313.16
2022-07-30T07:48:10.345Z,94312.06
2022-07-30T07:50:38.013Z,94311.78
2022-07-30T07:53:06.218Z,94316.16
2022-07-30T07:55:33.971Z,94312.31
2022-07-30T07:58:01.656Z,94317.78
2022-07-30T08:00:29.444Z,94316.66
2022-07-30T08:02:57.717Z,94316.41
2022-07-30T08:05:54.396Z,94326.47
2022-07-30T08:08:14.935Z,94317.19
2022-07-30T08:10:42.586Z,94322.38
2022-07-30T08:13:48.954Z,94323.16
2022-07-30T08:15:58.025Z,94313.63
2022-07-30T08:18:25.686Z,94320.97
2022-07-30T08:21:04.408Z,94323.41
2022-07-30T08:23:42.173Z,94318.78
2022-07-30T08:26:10.231Z,94312.25
2022-07-30T08:28:38.010Z,94316.88
2022-07-30T08:31:05.587Z,94318.78
2022-07-30T08:33:33.194Z,94313.03
2022-07-30T08:36:09.283Z,94323.16
2022-07-30T08:38:38.117Z,94317.97
2022-07-30T08:41:05.747Z,94319.59
2022-07-30T08:43:33.353Z,94316.06
2022-07-30T08:46:01.577Z,94312.50
2022-07-30T08:48:29.158Z,94322.56
2022-07-30T08:50:56.816Z,94309.72
2022-07-30T08:53:27.313Z,94317.06
2022-07-30T08:55:58.538Z,94319.44
2022-07-30T08:58:29.757Z,94315.06
2022-07-30T09:00:57.529Z,94316.19
2022-07-30T09:03:25.381Z,94309.91
2022-07-30T09:05:58.402Z,94315.63
2022-07-30T09:08:27.905Z,94317.81
2022-07-30T09:10:55.588Z,94325.22
2022-07-30T09:13:27.558Z,94322.75
2022-07-30T09:15:55.261Z,94321.13
2022-07-30T09:18:30.545Z,94320.31
2022-07-30T09:20:59.365Z,94321.41
2022-07-30T09:23:28.421Z,94326.88
2022-07-30T09:26:00.487Z,94321.41
2022-07-30T09:28:33.006Z,94316.78
2022-07-30T09:31:00.971Z,94320.59
2022-07-30T09:33:36.934Z,94319.50
2022-07-30T09:36:05.931Z,94326.06
2022-07-30T09:38:45.017Z,94332.31
2022-07-30T09:41:29.287Z,94329.91
2022-07-30T09:44:01.238Z,94327.97
2022-07-30T09:46:41.849Z,94325.25
2022-07-30T09:49:14.979Z,94334.53
2022-07-30T09:54:51.117Z,94322.50
2022-07-30T09:57:25.430Z,94330.69
2022-07-30T09:59:56.256Z,94332.31
2022-07-30T10:02:32.433Z,94330.69
2022-07-30T10:05:14.391Z,94325.25
2022-07-30T10:07:48.965Z,94322.50
2022-07-30T10:10:21.854Z,94327.97
2022-07-30T10:12:55.776Z,94333.41
2022-07-30T10:15:23.616Z,94326.06
2022-07-30T10:17:51.240Z,94333.41
2022-07-30T10:20:19.647Z,94327.97
2022-07-30T10:22:47.975Z,94317.06
2022-07-30T10:25:19.435Z,94326.88
2022-07-30T10:27:50.297Z,94326.88
2022-07-30T10:30:27.634Z,94314.31
2022-07-30T10:32:56.237Z,94319.78
2022-07-30T10:35:34.615Z,94322.22
2022-07-30T10:38:08.610Z,94330.69
2022-07-30T10:40:39.543Z,94327.16
2022-07-30T10:43:24.232Z,94322.50
2022-07-30T10:46:02.651Z,94319.78
2022-07-30T10:48:33.160Z,94331.53
2022-07-30T10:51:01.283Z,94321.41
2022-07-30T10:53:36.647Z,94318.69
2022-07-30T10:56:14.729Z,94333.16
2022-07-30T10:59:03.362Z,94330.41
2022-07-30T11:02:07.339Z,94330.41
2022-07-30T11:04:35.506Z,94326.88
2022-07-30T11:07:29.334Z,94332.31
2022-07-30T11:10:08.886Z,94328.78
2022-07-30T11:12:56.249Z,94332.31
2022-07-30T11:15:25.224Z,94328.50
2022-07-30T11:18:02.679Z,94337.22
2022-07-30T11:20:30.566Z,94332.56
2022-07-30T11:23:10.171Z,94336.13
2022-07-30T11:25:51.614Z,94331.47
2022-07-30T11:28:39.078Z,94337.75
2022-07-30T11:31:55.651Z,94334.72
2022-07-30T11:34:30.538Z,94327.34
2022-07-30T11:37:18.132Z,94327.34
2022-07-30T11:40:12.119Z,94327.34
2022-07-30T11:42:41.316Z,94325.44
2022-07-30T11:45:27.033Z,94332.53
2022-07-30T11:47:58.011Z,94325.16
2022-07-30T11:50:26.629Z,94323.25
2022-07-30T11:52:54.889Z,94327.59
2022-07-30T11:55:26.945Z,94325.69
2022-07-30T11:57:55.056Z,94338.22
2022-07-30T12:00:22.824Z,94334.38
2022-07-30T12:05:28.088Z,94324.28
2022-07-30T12:07:59.242Z,94325.91
2022-07-30T12:10:27.886Z,94327.53
2022-07-30T12:13:07.888Z,94325.66
2022-07-30T12:15:36.267Z,94319.09
2022-07-30T12:18:26.228Z,94317.47
2022-07-30T12:20:57.645Z,94318.25
2022-07-30T12:23:27.044Z,94314.75
2022-07-30T12:25:54.666Z,94315.84
2022-07-30T12:28:23.003Z,94322.91
2022-07-30T12:30:50.869Z,94328.66
2022-07-30T12:33:18.689Z,94327.03
2022-07-30T12:35:46.881Z,94321.56
2022-07-30T12:38:15.951Z,94329.75
2022-07-30T12:40:58.460Z,94320.75
2022-07-30T12:43:45.300Z,94321.56
2022-07-30T12:46:15.137Z,94315.59
2022-07-30T12:48:56.958Z,94309.31
2022-07-30T12:51:27.123Z,94308.50
2022-07-30T12:53:57.268Z,94315.59
2022-07-30T12:56:25.669Z,94320.22
2022-07-30T12:58:53.412Z,94310.94
2022-07-30T13:01:21.352Z,94313.66
2022-07-30T13:03:49.119Z,94313.66
2022-07-30T13:06:17.874Z,94313.66
2022-07-30T13:08:47.003Z,94304.38
2022-07-30T13:11:16.050Z,94307.09
2022-07-30T13:13:43.652Z,94300.53
2022-07-30T13:16:11.269Z,94287.47
2022-07-30T13:18:39.041Z,94301.63
2022-07-30T13:21:08.082Z,94303.53
2022-07-30T13:23:36.003Z,94293.44
2022-07-30T13:26:03.717Z,94286.06
2022-07-30T13:28:33.351Z,94287.41
2022-07-30T13:31:00.966Z,94292.84
2022-07-30T13:33:28.669Z,94297.19
2022-07-30T13:35:56.495Z,94298.03
2022-07-30T13:38:24.162Z,94288.50
2022-07-30T13:40:51.840Z,94289.28
2022-07-30T13:43:19.517Z,94291.22
2022-07-30T13:45:48.554Z,94288.78
2022-07-30T13:48:16.417Z,94285.25
2022-07-30T13:50:44.357Z,94288.78
2022-07-30T13:53:12.005Z,94278.69
2022-07-30T13:55:39.826Z,94279.78
2022-07-30T13:58:07.681Z,94280.59
2022-07-30T14:00:36.647Z,94271.03
2022-07-30T14:03:06.568Z,94281.66
2022-07-30T14:05:35.959Z,94272.38
2022-07-30T14:10:38.087Z,94271.78
2022-07-30T14:13:05.897Z,94265.50
2022-07-30T14:18:01.564Z,94270.97
2022-07-30T14:20:30.600Z,94263.09
2022-07-30T14:22:58.248Z,94260.34
2022-07-30T14:25:25.885Z,94261.47
2022-07-30T14:27:53.590Z,94266.09
2022-07-30T14:30:21.311Z,94263.09
2022-07-30T14:32:50.100Z,94254.59
2022-07-30T14:35:20.215Z,94263.59
2022-07-30T14:37:49.197Z,94266.03
2022-07-30T14:40:16.803Z,94261.69
2022-07-30T14:42:44.471Z,94259.50
2022-07-30T14:45:12.410Z,94260.28
2022-07-30T14:47:40.334Z,94258.41
2022-07-30T14:50:09.662Z,94255.66
2022-07-30T14:52:38.650Z,94249.38
2022-07-30T14:55:09.013Z,94257.28
2022-07-30T14:57:36.709Z,94258.91
2022-07-30T15:00:05.485Z,94253.44
2022-07-30T15:02:33.146Z,94253.44
2022-07-30T15:05:00.785Z,94251.53
2022-07-30T15:07:29.400Z,94255.34
2022-07-30T15:10:00.332Z,94260.53
2022-07-30T15:12:29.402Z,94263.25
2022-07-30T15:14:57.245Z,94256.69
2022-07-30T15:17:25.532Z,94266.78
2022-07-30T15:19:53.133Z,94260.81
2022-07-30T15:22:20.877Z,94258.09
2022-07-30T15:24:48.575Z,94251.53
2022-07-30T15:27:16.446Z,94261.31
2022-07-30T15:29:45.557Z,94264.06
2022-07-30T15:32:13.185Z,94260.53
2022-07-30T15:34:41.161Z,94271.44
2022-07-30T15:37:09.464Z,94272.25
2022-07-30T15:39:37.104Z,94270.34
2022-07-30T15:42:06.005Z,94267.63
2022-07-30T15:44:34.005Z,94267.63
2022-07-30T15:47:02.989Z,94273.88
2022-07-30T15:49:30.681Z,94275.78
2022-07-30T15:51:59.799Z,94268.41
2022-07-30T15:54:27.638Z,94277.41
2022-07-30T15:57:00.985Z,94273.88
2022-07-30T15:59:29.143Z,94274.69
2022-07-30T16:01:56.742Z,94270.34
2022-07-30T16:04:32.004Z,94274.97
2022-07-30T16:07:00.265Z,94279.31
2022-07-30T16:09:27.928Z,94275.78
2022-07-30T16:11:55.530Z,94278.53
2022-07-30T16:14:23.386Z,94266.00
2022-07-30T16:16:52.584Z,94269.50
2022-07-30T16:19:20.251Z,94270.63
2022-07-30T16:21:49.217Z,94287.00
2022-07-30T16:24:16.790Z,94280.75
2022-07-30T16:26:44.463Z,94277.50
2022-07-30T16:29:14.046Z,94283.75
2022-07-30T16:31:41.827Z,94276.38
2022-07-30T16:34:09.503Z,94274.75
2022-07-30T16:36:37.166Z,94269.31
2022-07-30T16:39:06.297Z,94268.47
2022-07-30T16:41:33.937Z,94272.03
2022-07-30T16:44:01.606Z,94272.31
2022-07-30T16:46:29.242Z,94274.75
2022-07-30T16:48:56.979Z,94269.59
2022-07-30T16:51:24.695Z,94269.84
2022-07-30T16:53:52.313Z,94274.22
2022-07-30T16:56:21.263Z,94273.41
2022-07-30T16:58:48.869Z,94268.22
2022-07-30T17:01:16.502Z,94277.25
2022-07-30T17:03:44.144Z,94276.41
2022-07-30T17:06:11.738Z,94279.44
2022-07-30T17:08:39.320Z,94273.16
2022-07-30T17:11:09.818Z,94279.72
2022-07-30T17:13:40.687Z,94286.00
2022-07-30T17:16:08.476Z,94290.66
2022-07-30T17:18:36.097Z,94279.44
2022-07-30T17:21:03.702Z,94282.94
2022-07-30T17:23:31.404Z,94291.06
2022-07-30T17:25:59.018Z,94300.84
2022-07-30T17:28:27.208Z,94291.00
2022-07-30T17:30:56.358Z,94298.00
2022-07-30T17:33:23.966Z,94290.88
2022-07-30T17:35:51.591Z,94294.13
2022-07-30T17:38:19.700Z,94284.84
2022-07-30T17:40:47.485Z,94287.03
2022-07-30T17:43:15.444Z,94290.06
2022-07-30T17:45:43.371Z,94293.06
2022-07-30T17:48:12.324Z,94295.28
2022-07-30T17:50:40.006Z,94281.38
2022-07-30T17:53:07.617Z,94281.38
2022-07-30T17:55:35.525Z,94291.00
2022-07-30T17:58:03.194Z,94288.53
2022-07-30T18:00:30.923Z,94292.38
2022-07-30T18:02:58.525Z,94297.03
2022-07-30T18:05:27.513Z,94288.31
2022-07-30T18:07:55.158Z,94297.59
2022-07-30T18:10:22.826Z,94296.28
2022-07-30T18:12:50.417Z,94291.91
2022-07-30T18:15:19.586Z,94296.53
2022-07-30T18:17:47.234Z,94294.63
2022-07-30T18:20:15.126Z,94293.53
2022-07-30T18:22:44.077Z,94289.72
2022-07-30T18:25:17.964Z,94294.34
2022-07-30T18:27:47.010Z,94292.69
2022-07-30T18:30:14.794Z,94294.63
2022-07-30T18:32:42.420Z,94300.06
2022-07-30T18:35:14.113Z,94298.69
2022-07-30T18:37:44.133Z,94299.75
2022-07-30T18:40:13.006Z,94305.66
2022-07-30T18:42:40.712Z,94308.88
2022-07-30T18:45:10.196Z,94309.91
2022-07-30T18:47:37.805Z,94305.50
2022-07-30T18:50:06.204Z,94309.81
2022-07-30T18:52:34.305Z,94297.69
2022-07-30T18:55:03.373Z,94298.72
2022-07-30T18:57:30.963Z,94305.25
2022-07-30T18:59:58.580Z,94307.41
2022-07-30T19:02:26.249Z,94312.78
2022-07-30T19:04:54.005Z,94316.25
2022-07-30T19:07:21.601Z,94311.63
2022-07-30T19:09:49.265Z,94318.13
2022-07-30T19:12:18.284Z,94317.84
2022-07-30T19:14:45.873Z,94329.78
2022-07-30T19:17:14.038Z,94329.50
2022-07-30T19:19:43.096Z,94327.28
2022-07-30T19:22:10.686Z,94324.28
2022-07-30T19:24:38.399Z,94335.78
2022-07-30T19:27:06.058Z,94332.75
2022-07-30T19:29:35.082Z,94336.59
2022-07-30T19:32:02.984Z,94332.53
2022-07-30T19:34:31.469Z,94338.28
2022-07-30T19:36:59.083Z,94332.59
2022-07-30T19:39:26.800Z,94339.47
2022-07-30T19:41:54.433Z,94346.03
2022-07-30T19:44:22.110Z,94344.41
2022-07-30T19:46:51.744Z,94343.06
2022-07-30T19:49:19.822Z,94339.28
2022-07-30T19:52:09.955Z,94334.44
2022-07-30T19:54:37.104Z,94333.59
2022-07-30T19:57:05.069Z,94336.91
2022-07-30T19:59:45.510Z,94339.13
2022-07-30T20:02:22.828Z,94337.78
2022-07-30T20:04:50.680Z,94342.72
2022-07-30T20:07:19.048Z,94350.09
2022-07-30T20:09:48.614Z,94348.47
2022-07-30T20:12:17.184Z,94357.78
2022-07-30T20:14:44.901Z,94349.06
2022-07-30T20:17:12.605Z,94355.09
2022-07-30T20:19:48.106Z,94352.06
2022-07-30T20:22:16.561Z,94355.91
2022-07-30T20:24:44.824Z,94349.94
2022-07-30T20:27:38.212Z,94351.03
2022-07-30T20:30:00.045Z,94351.84
2022-07-30T20:32:29.197Z,94351.84
2022-07-30T20:34:58.376Z,94346.16
2022-07-30T20:37:27.390Z,94354.34
2022-07-30T20:39:55.813Z,94348.38
2022-07-30T20:42:24.100Z,94356.84
2022-07-30T20:44:53.310Z,94352.22
2022-07-30T20:47:34.407Z,94354.63
2022-07-30T20:50:10.031Z,94354.09
2022-07-30T20:52:39.251Z,94357.66
2022-07-30T20:55:08.161Z,94369.13
2022-07-30T20:57:56.313Z,94364.22
2022-07-30T21:00:25.252Z,94371.06
2022-07-30T21:02:52.971Z,94373.81
2022-07-30T21:05:22.044Z,94371.06
2022-07-30T21:10:37.356Z,94365.66
2022-07-30T21:13:07.532Z,94373.84
2022-07-30T21:15:36.108Z,94364.84
2022-07-30T21:18:04.471Z,94374.94
2022-07-30T21:20:33.445Z,94374.16
2022-07-30T21:23:05.681Z,94375.78
2022-07-30T21:25:38.049Z,94383.13
2022-07-30T21:28:27.670Z,94381.81
2022-07-30T21:30:57.427Z,94385.09
2022-07-30T21:33:31.059Z,94386.19
2022-07-30T21:36:00.766Z,94389.22
2022-07-30T21:38:28.692Z,94388.72
2022-07-30T21:40:58.225Z,94398.53
2022-07-30T21:43:30.022Z,94401.25
2022-07-30T21:45:58.131Z,94399.06
2022-07-30T21:48:25.857Z,94390.88
2022-07-30T21:50:54.162Z,94396.66
2022-07-30T21:53:30.022Z,94399.66
2022-07-30T21:56:12.041Z,94399.66
2022-07-30T21:58:39.768Z,94397.22
2022-07-30T22:01:17.430Z,94391.78
2022-07-30T22:04:02.719Z,94397.47
2022-07-30T22:06:33.324Z,94406.75
2022-07-30T22:09:02.694Z,94405.41
2022-07-30T22:11:42.816Z,94407.88
2022-07-30T22:14:12.958Z,94401.88
2022-07-30T22:16:45.901Z,94402.69
2022-07-30T22:19:14.623Z,94400.25
2022-07-30T22:21:42.775Z,94405.72
2022-07-30T22:24:28.725Z,94395.91
2022-07-30T22:27:00.066Z,94404.38
2022-07-30T22:29:34.178Z,94408.19
2022-07-30T22:32:03.822Z,94407.38
2022-07-30T22:34:31.950Z,94404.13
2022-07-30T22:36:59.592Z,94398.13
2022-07-30T22:39:31.715Z,94400.88
2022-07-30T22:42:16.539Z,94395.41
2022-07-30T22:44:46.090Z,94396.25
2022-07-30T22:47:20.909Z,94393.78
2022-07-30T22:49:50.292Z,94397.63
2022-07-30T22:52:27.235Z,94390.53
2022-07-30T22:55:04.646Z,94398.72
2022-07-30T22:57:38.130Z,94397.09
2022-07-30T23:00:10.955Z,94396.25
2022-07-30T23:02:39.414Z,94391.09
2022-07-30T23:05:07.606Z,94392.75
2022-07-30T23:07:39.550Z,94399.28
2022-07-30T23:10:17.350Z,94389.47
2022-07-30T23:12:26.823Z,94357.19
2022-07-30T23:12:48.244Z,94394.38
2022-07-30T23:15:16.054Z,94389.22
2022-07-30T23:17:44.354Z,94385.69
2022-07-30T23:20:12.989Z,94385.97
2022-07-30T23:22:40.618Z,94393.34
2022-07-30T23:25:11.209Z,94388.47
2022-07-30T23:27:39.214Z,94395.00
2022-07-30T23:30:08.372Z,94392.56
2022-07-30T23:32:36.647Z,94384.69
2022-07-30T23:35:04.705Z,94377.56
2022-07-30T23:37:47.871Z,94380.59
2022-07-30T23:40:19.013Z,94378.16
2022-07-30T23:42:46.945Z,94377.63
2022-07-30T23:45:14.561Z,94374.91
2022-07-30T23:48:01.665Z,94375.47
2022-07-30T23:50:29.822Z,94379.81
2022-07-30T23:52:57.424Z,94377.38
2022-07-30T23:55:26.998Z,94380.09
2022-07-30T23:57:54.671Z,94374.94
